createdAt,value
2019-02-17T00:00:01.263Z,25.00
2019-02-17T00:02:29.898Z,24.63
2019-02-17T00:04:58.383Z,23.40
2019-02-17T00:07:26.849Z,23.43
2019-02-17T00:09:55.435Z,23.50
2019-02-17T00:12:23.894Z,23.60
2019-02-17T00:14:52.387Z,25.03
2019-02-17T00:17:21.098Z,24.13
2019-02-17T00:19:49.586Z,24.67
2019-02-17T00:22:18.059Z,23.93
2019-02-17T00:24:46.623Z,22.77
2019-02-17T00:27:15.079Z,23.67
2019-02-17T00:29:43.583Z,25.40
2019-02-17T00:32:12.046Z,24.20
2019-02-17T00:34:40.509Z,24.23
2019-02-17T00:37:09.030Z,23.27
2019-02-17T00:39:37.499Z,25.33
2019-02-17T00:42:06.080Z,24.40
2019-02-17T00:44:34.626Z,24.43
2019-02-17T00:47:03.183Z,25.17
2019-02-17T00:49:31.722Z,25.73
2019-02-17T00:52:00.227Z,25.47
2019-02-17T00:54:28.703Z,25.53
2019-02-17T00:56:57.237Z,24.83
2019-02-17T00:59:25.730Z,24.73
2019-02-17T01:01:54.298Z,23.57
2019-02-17T01:04:22.762Z,24.17
2019-02-17T01:06:51.299Z,23.07
2019-02-17T01:09:19.783Z,25.30
2019-02-17T01:11:48.274Z,24.30
2019-02-17T01:14:17.151Z,26.63
2019-02-17T01:16:45.620Z,23.53
2019-02-17T01:19:14.159Z,23.20
2019-02-17T01:21:42.727Z,24.90
2019-02-17T01:24:11.196Z,24.60
2019-02-17T01:26:39.737Z,25.27
2019-02-17T01:29:08.299Z,25.13
2019-02-17T01:31:36.767Z,24.40
2019-02-17T01:34:10.318Z,26.73
2019-02-17T01:36:59.658Z,25.23
2019-02-17T01:39:28.214Z,24.67
2019-02-17T01:41:56.678Z,26.03
2019-02-17T01:44:25.182Z,25.67
2019-02-17T01:46:53.792Z,24.90
2019-02-17T01:49:22.395Z,25.47
2019-02-17T01:51:50.959Z,24.67
2019-02-17T01:54:19.423Z,24.70
2019-02-17T01:56:47.910Z,25.00
2019-02-17T01:59:16.388Z,24.07
2019-02-17T02:01:48.044Z,26.47
2019-02-17T02:04:16.588Z,29.23
2019-02-17T02:06:45.050Z,27.57
2019-02-17T02:09:13.610Z,26.80
2019-02-17T02:11:42.162Z,27.90
2019-02-17T02:14:10.670Z,26.70
2019-02-17T02:16:39.137Z,29.07
2019-02-17T02:19:07.671Z,26.60
2019-02-17T02:21:36.175Z,30.37
2019-02-17T02:24:04.643Z,30.30
2019-02-17T02:26:33.137Z,29.60
2019-02-17T02:29:01.728Z,28.17
2019-02-17T02:31:30.215Z,27.47
2019-02-17T02:33:58.678Z,26.90
2019-02-17T02:36:27.168Z,25.63
2019-02-17T02:38:55.639Z,30.20
2019-02-17T02:41:34.229Z,28.03
2019-02-17T02:43:54.447Z,27.90
2019-02-17T02:46:22.916Z,27.53
2019-02-17T02:48:51.447Z,27.27
2019-02-17T02:51:22.578Z,26.93
2019-02-17T02:53:51.043Z,28.10
2019-02-17T02:56:19.548Z,25.97
2019-02-17T02:58:48.084Z,25.33
2019-02-17T03:01:16.691Z,27.47
2019-02-17T03:03:46.137Z,26.83
2019-02-17T03:06:16.447Z,26.87
2019-02-17T03:08:45.076Z,25.37
2019-02-17T03:11:13.549Z,26.40
2019-02-17T03:13:42.040Z,27.40
2019-02-17T03:16:10.506Z,25.20
2019-02-17T03:18:39.075Z,25.23
2019-02-17T03:21:07.667Z,26.53
2019-02-17T03:23:36.212Z,23.47
2019-02-17T03:26:04.773Z,25.23
2019-02-17T03:28:33.350Z,25.23
2019-02-17T03:31:01.849Z,25.43
2019-02-17T03:33:30.356Z,25.63
2019-02-17T03:36:18.259Z,24.97
2019-02-17T03:38:46.724Z,26.53
2019-02-17T03:41:15.300Z,25.60
2019-02-17T03:43:43.784Z,26.87
2019-02-17T03:46:12.308Z,27.03
2019-02-17T03:48:40.840Z,26.70
2019-02-17T03:51:09.335Z,27.07
2019-02-17T03:53:37.877Z,30.70
2019-02-17T03:56:06.443Z,35.20
2019-02-17T03:58:34.906Z,31.43
2019-02-17T04:01:03.490Z,30.90
2019-02-17T04:03:31.954Z,29.07
2019-02-17T04:06:00.493Z,28.93
2019-02-17T04:08:29.046Z,29.17
2019-02-17T04:11:00.431Z,29.53
2019-02-17T04:13:29.087Z,28.57
2019-02-17T04:15:57.633Z,29.43
2019-02-17T04:18:26.203Z,27.67
2019-02-17T04:20:54.766Z,26.70
2019-02-17T04:23:42.599Z,27.87
2019-02-17T04:26:11.081Z,27.77
2019-02-17T04:28:39.636Z,26.97
2019-02-17T04:31:08.256Z,25.43
2019-02-17T04:33:36.795Z,26.00
2019-02-17T04:36:05.297Z,26.87
2019-02-17T04:38:33.850Z,28.57
2019-02-17T04:41:02.338Z,29.13
2019-02-17T04:43:30.806Z,27.87
2019-02-17T04:45:59.307Z,28.40
2019-02-17T04:48:27.890Z,29.10
2019-02-17T04:50:56.355Z,28.57
2019-02-17T04:53:24.963Z,29.33
2019-02-17T04:55:53.456Z,30.57
2019-02-17T04:58:21.944Z,29.40
2019-02-17T05:00:50.483Z,34.73
2019-02-17T05:03:19.043Z,35.77
2019-02-17T05:05:47.510Z,36.57
2019-02-17T05:08:15.986Z,37.70
2019-02-17T05:10:44.481Z,36.90
2019-02-17T05:13:13.111Z,35.83
2019-02-17T05:15:41.706Z,34.83
2019-02-17T05:18:10.178Z,30.60
2019-02-17T05:20:38.674Z,31.60
2019-02-17T05:23:07.214Z,29.40
2019-02-17T05:25:35.784Z,29.50
2019-02-17T05:28:04.254Z,29.73
2019-02-17T05:30:32.739Z,32.10
2019-02-17T05:33:01.374Z,29.27
2019-02-17T05:35:29.883Z,28.87
2019-02-17T05:37:58.433Z,29.70
2019-02-17T05:40:26.975Z,27.97
2019-02-17T05:42:55.471Z,28.33
2019-02-17T05:45:23.940Z,28.63
2019-02-17T05:47:52.431Z,27.60
2019-02-17T05:50:20.976Z,29.77
2019-02-17T05:52:49.581Z,28.27
2019-02-17T05:55:18.123Z,24.77
2019-02-17T05:57:46.587Z,26.87
2019-02-17T06:00:16.552Z,30.00
2019-02-17T06:02:45.122Z,26.77
2019-02-17T06:05:13.799Z,25.67
2019-02-17T06:07:42.291Z,28.83
2019-02-17T06:10:10.858Z,29.73
2019-02-17T06:12:39.494Z,28.10
2019-02-17T06:15:08.207Z,27.13
2019-02-17T06:17:36.734Z,27.13
2019-02-17T06:20:08.681Z,27.87
2019-02-17T06:22:37.151Z,25.90
2019-02-17T06:25:06.060Z,27.17
2019-02-17T06:27:34.556Z,26.33
2019-02-17T06:30:03.532Z,28.03
2019-02-17T06:32:32.082Z,27.23
2019-02-17T06:35:00.575Z,29.87
2019-02-17T06:37:29.075Z,26.07
2019-02-17T06:39:57.543Z,30.23
2019-02-17T06:42:26.047Z,25.77
2019-02-17T06:44:54.594Z,26.37
2019-02-17T06:47:24.803Z,27.07
2019-02-17T06:49:53.442Z,26.87
2019-02-17T06:52:21.995Z,27.33
2019-02-17T06:54:52.198Z,26.17
2019-02-17T06:57:22.379Z,26.67
2019-02-17T06:59:52.519Z,25.33
2019-02-17T07:02:20.979Z,24.60
2019-02-17T07:05:06.186Z,23.57
2019-02-17T07:07:34.715Z,23.00
2019-02-17T07:10:03.191Z,22.33
2019-02-17T07:12:31.683Z,21.33
2019-02-17T07:15:00.298Z,22.10
2019-02-17T07:17:28.914Z,21.40
2019-02-17T07:19:57.403Z,21.73
2019-02-17T07:22:25.866Z,21.37
2019-02-17T07:24:54.375Z,20.90
2019-02-17T07:27:22.913Z,21.37
2019-02-17T07:29:51.455Z,21.40
2019-02-17T07:32:19.977Z,21.33
2019-02-17T07:34:48.520Z,18.90
2019-02-17T07:37:19.298Z,19.77
2019-02-17T07:39:47.263Z,20.33
2019-02-17T07:42:15.755Z,20.37
2019-02-17T07:44:44.254Z,19.83
2019-02-17T07:47:12.815Z,19.33
2019-02-17T07:49:41.303Z,19.43
2019-02-17T07:52:09.768Z,20.00
2019-02-17T07:54:38.258Z,19.23
2019-02-17T07:57:06.738Z,20.53
2019-02-17T07:59:35.239Z,18.10
2019-02-17T08:02:03.855Z,18.20
2019-02-17T08:04:32.328Z,18.37
2019-02-17T08:07:00.818Z,17.93
2019-02-17T08:09:29.381Z,18.47
2019-02-17T08:11:57.842Z,18.27
2019-02-17T08:14:26.403Z,17.70
2019-02-17T08:16:54.873Z,16.93
2019-02-17T08:19:23.453Z,17.67
2019-02-17T08:21:51.979Z,18.33
2019-02-17T08:24:20.562Z,16.73
2019-02-17T08:26:49.035Z,17.20
2019-02-17T08:29:17.570Z,18.10
2019-02-17T08:31:55.493Z,17.67
2019-02-17T08:34:16.269Z,17.53
2019-02-17T08:36:44.910Z,16.57
2019-02-17T08:39:13.386Z,16.43
2019-02-17T08:41:42.021Z,17.00
2019-02-17T08:44:10.564Z,16.97
2019-02-17T08:46:39.201Z,17.40
2019-02-17T08:49:07.695Z,17.53
2019-02-17T08:51:36.266Z,17.33
2019-02-17T08:54:04.809Z,16.83
2019-02-17T08:56:33.375Z,17.57
2019-02-17T08:59:01.870Z,17.80
2019-02-17T09:01:30.338Z,18.60
2019-02-17T09:03:58.858Z,18.40
2019-02-17T09:06:27.330Z,17.70
2019-02-17T09:08:55.830Z,18.67
2019-02-17T09:11:24.392Z,18.97
2019-02-17T09:13:52.959Z,18.43
2019-02-17T09:16:21.508Z,19.17
2019-02-17T09:18:49.974Z,17.83
2019-02-17T09:21:18.468Z,19.57
2019-02-17T09:23:47.022Z,18.10
2019-02-17T09:26:15.606Z,18.63
2019-02-17T09:28:44.075Z,20.00
2019-02-17T09:31:12.567Z,17.93
2019-02-17T09:33:41.039Z,19.03
2019-02-17T09:36:09.531Z,18.67
2019-02-17T09:38:38.027Z,18.20
2019-02-17T09:41:06.519Z,18.60
2019-02-17T09:43:34.993Z,18.27
2019-02-17T09:46:03.538Z,19.63
2019-02-17T09:48:32.050Z,18.97
2019-02-17T09:51:00.514Z,20.27
2019-02-17T09:53:28.987Z,20.10
2019-02-17T09:55:58.156Z,20.43
2019-02-17T09:58:26.722Z,19.80
2019-02-17T10:00:55.194Z,21.00
2019-02-17T10:03:23.706Z,23.10
2019-02-17T10:05:52.177Z,24.93
2019-02-17T10:08:20.883Z,24.13
2019-02-17T10:10:49.378Z,23.93
2019-02-17T10:13:17.950Z,22.57
2019-02-17T10:15:46.596Z,22.40
2019-02-17T10:18:15.166Z,21.10
2019-02-17T10:20:43.706Z,22.47
2019-02-17T10:23:12.203Z,21.60
2019-02-17T10:25:40.742Z,21.83
2019-02-17T10:28:09.234Z,21.50
2019-02-17T10:30:37.835Z,22.43
2019-02-17T10:33:06.316Z,22.27
2019-02-17T10:35:34.882Z,23.13
2019-02-17T10:38:03.458Z,22.00
2019-02-17T10:40:31.931Z,22.40
2019-02-17T10:43:00.578Z,21.53
2019-02-17T10:45:29.158Z,22.03
2019-02-17T10:47:57.652Z,22.20
2019-02-17T10:50:26.163Z,21.37
2019-02-17T10:52:54.631Z,24.57
2019-02-17T10:55:23.119Z,22.07
2019-02-17T10:57:51.662Z,23.00
2019-02-17T11:00:22.349Z,23.77
2019-02-17T11:02:50.981Z,23.70
2019-02-17T11:05:19.567Z,24.97
2019-02-17T11:07:55.784Z,23.07
2019-02-17T11:10:24.647Z,23.17
2019-02-17T11:12:53.576Z,22.60
2019-02-17T11:15:22.642Z,23.00
2019-02-17T11:17:51.214Z,24.00
2019-02-17T11:20:19.682Z,24.33
2019-02-17T11:22:48.179Z,24.43
2019-02-17T11:25:16.649Z,23.53
2019-02-17T11:27:45.240Z,25.03
2019-02-17T11:30:16.804Z,25.33
2019-02-17T11:32:45.378Z,25.17
2019-02-17T11:35:14.176Z,25.77
2019-02-17T11:37:44.998Z,23.83
2019-02-17T11:40:13.430Z,24.37
2019-02-17T11:42:42.250Z,24.40
2019-02-17T11:45:18.463Z,23.97
2019-02-17T11:47:47.748Z,24.37
2019-02-17T11:50:16.313Z,24.93
2019-02-17T11:52:44.856Z,25.13
2019-02-17T11:55:15.560Z,25.37
2019-02-17T11:57:44.031Z,26.17
2019-02-17T12:00:18.856Z,25.03
2019-02-17T12:02:47.441Z,24.33
2019-02-17T12:05:16.167Z,24.47
2019-02-17T12:07:44.778Z,25.23
2019-02-17T12:10:13.395Z,23.87
2019-02-17T12:12:41.999Z,26.80
2019-02-17T12:15:12.832Z,25.80
2019-02-17T12:17:41.516Z,25.90
2019-02-17T12:20:17.190Z,27.00
2019-02-17T12:22:46.175Z,25.93
2019-02-17T12:25:14.671Z,26.30
2019-02-17T12:27:44.907Z,27.47
2019-02-17T12:30:13.914Z,27.37
2019-02-17T12:32:42.383Z,26.97
2019-02-17T12:35:10.872Z,26.87
2019-02-17T12:37:39.370Z,26.77
2019-02-17T12:40:10.456Z,26.73
2019-02-17T12:42:38.963Z,26.83
2019-02-17T12:45:10.447Z,26.40
2019-02-17T12:47:38.979Z,27.57
2019-02-17T12:50:10.311Z,28.27
2019-02-17T12:52:46.826Z,27.77
2019-02-17T12:55:09.654Z,29.20
2019-02-17T12:57:38.154Z,28.40
2019-02-17T13:00:13.055Z,27.07
2019-02-17T13:02:41.523Z,26.67
2019-02-17T13:05:10.656Z,26.90
2019-02-17T13:07:39.199Z,27.63
2019-02-17T13:10:11.762Z,27.00
2019-02-17T13:12:40.312Z,28.60
2019-02-17T13:15:11.516Z,28.13
2019-02-17T13:17:40.062Z,27.37
2019-02-17T13:20:16.327Z,27.00
2019-02-17T13:22:44.872Z,27.60
2019-02-17T13:25:15.623Z,26.83
2019-02-17T13:27:44.182Z,26.33
2019-02-17T13:30:18.428Z,26.27
2019-02-17T13:32:47.124Z,26.57
2019-02-17T13:35:15.706Z,25.07
2019-02-17T13:37:44.299Z,24.23
2019-02-17T13:40:14.083Z,23.30
2019-02-17T13:42:42.735Z,23.23
2019-02-17T13:45:18.315Z,23.70
2019-02-17T13:47:47.032Z,23.33
2019-02-17T13:50:18.527Z,21.80
2019-02-17T13:52:47.024Z,21.10
2019-02-17T13:55:15.587Z,22.53
2019-02-17T13:57:44.059Z,23.23
2019-02-17T14:00:14.968Z,23.40
2019-02-17T14:02:43.434Z,22.83
2019-02-17T14:05:12.003Z,21.97
2019-02-17T14:07:40.471Z,23.67
2019-02-17T14:10:13.631Z,22.33
2019-02-17T14:12:42.282Z,22.53
2019-02-17T14:15:18.750Z,22.60
2019-02-17T14:17:47.232Z,22.60
2019-02-17T14:20:15.774Z,22.63
2019-02-17T14:22:44.262Z,23.60
2019-02-17T14:25:12.871Z,23.70
2019-02-17T14:27:41.527Z,24.13
2019-02-17T14:30:18.539Z,23.53
2019-02-17T14:32:47.039Z,24.27
2019-02-17T14:35:15.507Z,24.33
2019-02-17T14:37:44.056Z,23.43
2019-02-17T14:40:13.661Z,23.20
2019-02-17T14:42:42.338Z,22.90
2019-02-17T14:45:12.474Z,23.10
2019-02-17T14:47:40.948Z,22.63
2019-02-17T14:50:11.242Z,21.43
2019-02-17T14:52:39.863Z,21.50
2019-02-17T14:55:09.852Z,21.70
2019-02-17T14:57:38.318Z,21.13
2019-02-17T15:00:14.879Z,22.40
2019-02-17T15:02:43.429Z,21.90
2019-02-17T15:05:12.110Z,21.17
2019-02-17T15:07:40.605Z,21.90
2019-02-17T15:10:10.990Z,22.83
2019-02-17T15:12:39.749Z,22.73
2019-02-17T15:15:10.832Z,21.50
2019-02-17T15:17:39.383Z,21.70
2019-02-17T15:20:13.198Z,21.47
2019-02-17T15:22:41.826Z,21.47
2019-02-17T15:25:12.046Z,21.67
2019-02-17T15:27:40.615Z,21.60
2019-02-17T15:30:14.208Z,21.37
2019-02-17T15:32:42.794Z,20.60
2019-02-17T15:35:11.499Z,22.23
2019-02-17T15:37:39.988Z,22.73
2019-02-17T15:40:15.211Z,20.90
2019-02-17T15:42:43.711Z,21.70
2019-02-17T15:45:13.458Z,22.37
2019-02-17T15:47:41.936Z,22.60
2019-02-17T15:50:14.770Z,21.83
2019-02-17T15:52:43.423Z,22.80
2019-02-17T15:55:13.206Z,22.47
2019-02-17T15:57:41.822Z,21.23
2019-02-17T16:00:16.200Z,21.77
2019-02-17T16:02:44.776Z,21.23
2019-02-17T16:05:13.499Z,25.57
2019-02-17T16:07:41.988Z,22.93
2019-02-17T16:10:12.848Z,21.57
2019-02-17T16:12:41.494Z,21.17
2019-02-17T16:15:18.839Z,20.90
2019-02-17T16:17:47.417Z,21.33
2019-02-17T16:20:15.958Z,21.50
2019-02-17T16:22:44.476Z,21.80
2019-02-17T16:25:13.187Z,22.20
2019-02-17T16:27:41.758Z,21.77
2019-02-17T16:30:18.446Z,21.37
2019-02-17T16:32:47.014Z,23.37
2019-02-17T16:35:15.559Z,22.23
2019-02-17T16:37:44.227Z,20.93
2019-02-17T16:40:19.287Z,21.07
2019-02-17T16:42:48.052Z,22.17
2019-02-17T16:45:16.607Z,20.90
2019-02-17T16:47:45.714Z,20.53
2019-02-17T16:50:26.038Z,20.90
2019-02-17T16:52:54.547Z,20.63
2019-02-17T16:55:23.167Z,20.97
2019-02-17T16:57:51.758Z,21.63
2019-02-17T17:00:23.955Z,21.40
2019-02-17T17:02:57.044Z,21.27
2019-02-17T17:05:26.089Z,22.63
2019-02-17T17:07:54.693Z,22.47
2019-02-17T17:10:23.371Z,24.80
2019-02-17T17:12:51.938Z,24.47
2019-02-17T17:15:20.737Z,25.03
2019-02-17T17:17:49.422Z,23.87
2019-02-17T17:20:19.628Z,24.60
2019-02-17T17:22:48.377Z,24.73
2019-02-17T17:25:17.054Z,25.50
2019-02-17T17:27:45.614Z,24.87
2019-02-17T17:30:18.372Z,24.73
2019-02-17T17:32:47.080Z,25.07
2019-02-17T17:35:15.695Z,24.93
2019-02-17T17:37:44.251Z,24.03
2019-02-17T17:40:19.072Z,25.57
2019-02-17T17:42:48.022Z,28.23
2019-02-17T17:45:18.196Z,26.80
2019-02-17T17:47:46.738Z,24.97
2019-02-17T17:50:16.239Z,24.93
2019-02-17T17:52:44.711Z,24.13
2019-02-17T17:55:13.866Z,24.13
2019-02-17T17:57:42.402Z,24.10
2019-02-17T18:00:26.100Z,23.43
2019-02-17T18:02:54.776Z,22.17
2019-02-17T18:05:23.324Z,21.90
2019-02-17T18:07:51.815Z,22.17
2019-02-17T18:10:20.309Z,23.10
2019-02-17T18:12:48.806Z,22.90
2019-02-17T18:15:19.679Z,22.17
2019-02-17T18:17:54.307Z,22.53
2019-02-17T18:20:18.426Z,21.17
2019-02-17T18:22:47.067Z,21.23
2019-02-17T18:25:16.094Z,23.07
2019-02-17T18:27:44.627Z,21.40
2019-02-17T18:30:16.578Z,21.03
2019-02-17T18:32:45.590Z,20.90
2019-02-17T18:35:19.690Z,21.63
2019-02-17T18:37:44.658Z,21.50
2019-02-17T18:40:17.570Z,23.07
2019-02-17T18:42:46.934Z,22.27
2019-02-17T18:45:16.366Z,21.33
2019-02-17T18:47:44.932Z,24.13
2019-02-17T18:50:15.913Z,27.87
2019-02-17T18:52:44.451Z,23.27
2019-02-17T18:55:14.062Z,23.53
2019-02-17T18:57:49.377Z,22.97
2019-02-17T19:00:24.015Z,24.97
2019-02-17T19:02:52.618Z,23.57
2019-02-17T19:05:31.096Z,24.53
2019-02-17T19:07:51.434Z,23.90
2019-02-17T19:10:19.978Z,23.30
2019-02-17T19:12:48.607Z,23.03
2019-02-17T19:15:21.642Z,21.13
2019-02-17T19:17:50.200Z,20.67
2019-02-17T19:20:36.732Z,19.80
2019-02-17T19:23:05.274Z,18.73
2019-02-17T19:25:33.855Z,18.70
2019-02-17T19:28:03.744Z,18.23
2019-02-17T19:30:32.452Z,19.57
2019-02-17T19:33:00.926Z,20.40
2019-02-17T19:35:29.507Z,18.73
2019-02-17T19:37:58.107Z,18.60
2019-02-17T19:40:26.672Z,18.73
2019-02-17T19:42:55.215Z,18.93
2019-02-17T19:45:23.711Z,18.37
2019-02-17T19:47:52.255Z,19.57
2019-02-17T19:50:20.814Z,18.83
2019-02-17T19:52:49.455Z,18.57
2019-02-17T19:55:17.963Z,19.53
2019-02-17T19:57:46.502Z,18.63
2019-02-17T20:00:17.230Z,19.37
2019-02-17T20:02:56.210Z,19.87
2019-02-17T20:05:38.623Z,21.07
2019-02-17T20:08:07.220Z,19.17
2019-02-17T20:10:35.753Z,20.10
2019-02-17T20:13:04.331Z,18.97
2019-02-17T20:15:34.274Z,18.63
2019-02-17T20:18:02.763Z,18.63
2019-02-17T20:20:31.231Z,18.30
2019-02-17T20:22:59.791Z,21.40
2019-02-17T20:25:28.399Z,19.47
2019-02-17T20:27:56.972Z,17.93
2019-02-17T20:30:25.455Z,17.60
2019-02-17T20:32:53.961Z,17.20
2019-02-17T20:35:22.421Z,18.23
2019-02-17T20:37:51.007Z,18.13
2019-02-17T20:40:19.689Z,18.40
2019-02-17T20:42:48.235Z,17.20
2019-02-17T20:45:16.735Z,18.57
2019-02-17T20:47:45.273Z,18.07
2019-02-17T20:50:15.993Z,17.83
2019-02-17T20:52:44.595Z,17.63
2019-02-17T20:55:13.599Z,18.23
2019-02-17T20:57:42.239Z,18.53
2019-02-17T21:00:22.553Z,17.30
2019-02-17T21:02:50.976Z,18.43
2019-02-17T21:05:19.534Z,19.83
2019-02-17T21:07:48.093Z,17.73
2019-02-17T21:10:16.635Z,17.50
2019-02-17T21:12:45.289Z,17.90
2019-02-17T21:15:16.243Z,18.27
2019-02-17T21:17:44.846Z,18.07
2019-02-17T21:20:13.703Z,17.13
2019-02-17T21:22:42.267Z,18.10
2019-02-17T21:25:12.347Z,16.40
2019-02-17T21:27:40.886Z,16.60
2019-02-17T21:30:15.402Z,17.60
2019-02-17T21:32:43.951Z,16.80
2019-02-17T21:35:14.128Z,17.03
2019-02-17T21:37:42.758Z,17.47
2019-02-17T21:40:12.382Z,17.53
2019-02-17T21:42:40.870Z,17.40
2019-02-17T21:45:11.300Z,16.73
2019-02-17T21:47:39.875Z,17.07
2019-02-17T21:50:10.701Z,18.20
2019-02-17T21:52:41.652Z,17.90
2019-02-17T21:55:11.686Z,17.17
2019-02-17T21:57:40.223Z,17.27
2019-02-17T22:00:17.934Z,16.53
2019-02-17T22:02:46.511Z,17.03
2019-02-17T22:05:15.235Z,18.60
2019-02-17T22:07:43.763Z,18.23
2019-02-17T22:10:14.421Z,22.30
2019-02-17T22:12:43.094Z,22.87
2019-02-17T22:15:16.815Z,18.33
2019-02-17T22:17:45.318Z,17.87
2019-02-17T22:20:14.198Z,18.13
2019-02-17T22:22:42.678Z,18.33
2019-02-17T22:25:11.415Z,17.67
2019-02-17T22:27:39.878Z,18.23
2019-02-17T22:30:16.262Z,18.17
2019-02-17T22:32:44.831Z,17.70
2019-02-17T22:35:13.434Z,17.13
2019-02-17T22:37:42.073Z,17.17
2019-02-17T22:40:14.736Z,17.97
2019-02-17T22:42:43.306Z,17.23
2019-02-17T22:45:12.699Z,18.03
2019-02-17T22:47:41.171Z,17.57
2019-02-17T22:50:14.287Z,18.37
2019-02-17T22:52:44.165Z,17.67
2019-02-17T22:55:13.779Z,18.17
2019-02-17T22:57:42.379Z,18.13
2019-02-17T23:00:23.187Z,18.17
2019-02-17T23:02:51.732Z,18.57
2019-02-17T23:05:20.290Z,18.53
2019-02-17T23:07:48.785Z,18.50
2019-02-17T23:10:17.355Z,17.23
2019-02-17T23:12:45.824Z,16.80
2019-02-17T23:15:14.363Z,18.10
2019-02-17T23:17:42.919Z,17.00
2019-02-17T23:20:11.529Z,17.33
2019-02-17T23:22:40.164Z,17.87
2019-02-17T23:25:09.762Z,17.30
2019-02-17T23:27:38.265Z,16.63
2019-02-17T23:30:09.111Z,17.80
2019-02-17T23:32:37.603Z,19.13
2019-02-17T23:35:08.455Z,17.50
2019-02-17T23:37:36.950Z,17.17
2019-02-17T23:40:08.222Z,18.27
2019-02-17T23:42:36.796Z,18.10
2019-02-17T23:45:07.934Z,20.17
2019-02-17T23:47:36.461Z,19.40
2019-02-17T23:50:06.726Z,19.20
2019-02-17T23:52:35.307Z,21.17
2019-02-17T23:55:04.511Z,21.23
2019-02-17T23:57:33.074Z,21.73
